Lemert, Ohio
Current Conditions -  °F | °C
As of 6:53 AM on Monday 26 Jan 2015 (Local Time) from KMNN Reporting Station
Light Snow Light Snow  
Wind Chill:   Ceiling: 3800
Heat Index: 18°   Visibility: 4mi
Dew Point: 14°   Wind: 17mph
Humidity: 84%   Direction: 10°N
Pressure: 29.8"   Gusts: NA
Location:  40.948°N, 83.1346°W
Report Text: KMNN 261153Z AUTO 01015KT 4SM -SN BR BKN038 M08/M10 A2980 RMK AO2 SLP109 P0000 60000 T10781100 11067 21078 53006 TSNO $
Loading
Personal Weather Stations






























Interactive Weather Map New forecast layout! Learn more

10-Day Weather Forecast

Advertisements
Track Severe Weather on mobile